Time;durP1;ratioP1;P1;durP2;ratioP2;P2;SDS_P1;SDS_P2;PMS_P1;PMS_P2;Temp;Humidity;BMP_temperature;BMP_pressure;BME280_temperature;BME280_humidity;BME280_pressure;Samples;Min_cycle;Max_cycle;Signal;HPM_P1;HPM_P2
2024/03/22 04:01:45;;;;;;;16.90;9.17;;;12.60;99.90;;;;;;5336465;23;21231;-71
2024/03/22 04:04:10;;;;;;;17.80;9.57;;;12.50;99.90;;;;;;4936388;28;20472;-70
2024/03/22 04:06:37;;;;;;;14.10;8.37;;;12.40;99.90;;;;;;4932274;28;21039;-70
2024/03/22 04:09:03;;;;;;;32.53;9.20;;;12.50;99.90;;;;;;4927192;28;20229;-69
2024/03/22 04:11:30;;;;;;;20.17;8.00;;;12.50;99.90;;;;;;4917769;28;20492;-70
2024/03/22 04:13:56;;;;;;;13.90;7.43;;;12.50;99.90;;;;;;4913935;29;20464;-69
2024/03/22 04:16:22;;;;;;;16.03;7.80;;;12.50;99.90;;;;;;4909342;29;20499;-69
2024/03/22 04:18:49;;;;;;;19.77;9.30;;;12.50;99.90;;;;;;4904943;29;20577;-69
2024/03/22 04:21:16;;;;;;;16.47;8.70;;;12.50;99.90;;;;;;4903360;29;20489;-69
2024/03/22 04:23:42;;;;;;;18.70;7.97;;;12.60;99.90;;;;;;4903705;29;20694;-70
2024/03/22 04:26:09;;;;;;;20.27;8.93;;;12.50;99.90;;;;;;4900552;29;20461;-71
2024/03/22 04:28:35;;;;;;;20.80;8.90;;;12.50;99.90;;;;;;4907413;29;20222;-70
2024/03/22 04:31:03;;;;;;;12.93;7.03;;;12.50;99.90;;;;;;4912701;29;20495;-70
2024/03/22 04:33:30;;;;;;;27.13;9.97;;;12.50;99.90;;;;;;4905146;29;20227;-71
2024/03/22 04:35:59;;;;;;;20.77;8.10;;;12.50;99.90;;;;;;4902915;29;20537;-70
2024/03/22 04:38:26;;;;;;;18.93;11.97;;;12.60;99.90;;;;;;4895703;29;20472;-71
2024/03/22 04:40:53;;;;;;;18.43;9.90;;;12.60;99.90;;;;;;4907439;29;20469;-70
2024/03/22 04:43:20;;;;;;;22.97;8.40;;;12.70;99.90;;;;;;4908654;29;20616;-71
2024/03/22 04:45:48;;;;;;;15.77;7.20;;;12.70;99.90;;;;;;4907455;29;20477;-71
2024/03/22 04:48:17;;;;;;;19.87;9.67;;;12.60;99.90;;;;;;4907465;29;20580;-69
2024/03/22 04:50:44;;;;;;;17.03;9.70;;;12.60;99.90;;;;;;4908870;29;20560;-69
2024/03/22 04:53:11;;;;;;;11.40;7.20;;;12.60;99.90;;;;;;4913638;29;20476;-71
2024/03/22 04:55:38;;;;;;;8.80;5.13;;;12.60;99.90;;;;;;4910420;29;20465;-71
2024/03/22 04:58:05;;;;;;;17.73;8.37;;;12.60;99.90;;;;;;4907990;29;20863;-72
2024/03/22 05:00:32;;;;;;;30.27;11.80;;;12.60;99.90;;;;;;4912601;29;20554;-70
2024/03/22 05:02:58;;;;;;;15.27;8.43;;;12.60;99.90;;;;;;4914870;28;20465;-70
2024/03/22 05:05:24;;;;;;;18.20;8.10;;;12.60;99.90;;;;;;4917349;29;20473;-70
2024/03/22 05:07:51;;;;;;;6.57;3.93;;;12.50;99.90;;;;;;4917823;29;20588;-72
2024/03/22 05:10:18;;;;;;;8.43;4.47;;;12.50;99.90;;;;;;4921796;29;20210;-72
2024/03/22 05:12:45;;;;;;;16.77;6.50;;;12.50;99.90;;;;;;4917740;29;20524;-72
2024/03/22 05:15:11;;;;;;;11.53;7.03;;;12.50;99.90;;;;;;4919310;29;20476;-71
2024/03/22 05:17:39;;;;;;;19.20;8.50;;;12.50;99.90;;;;;;4917290;29;20427;-71
2024/03/22 05:20:08;;;;;;;14.57;7.60;;;12.60;99.90;;;;;;4906303;29;20470;-70
2024/03/22 05:22:35;;;;;;;10.40;7.00;;;12.60;99.90;;;;;;4908660;29;20849;-69
2024/03/22 05:25:01;;;;;;;9.63;7.13;;;12.60;99.90;;;;;;4914171;29;20469;-70
2024/03/22 05:27:29;;;;;;;23.53;10.50;;;12.50;99.90;;;;;;4909094;29;20472;-70
2024/03/22 05:29:55;;;;;;;14.20;7.10;;;12.60;99.90;;;;;;4907481;29;20473;-70
2024/03/22 05:32:22;;;;;;;12.53;7.70;;;12.60;99.90;;;;;;4911201;29;20913;-70
2024/03/22 05:34:47;;;;;;;7.90;5.93;;;12.60;99.90;;;;;;4910466;29;20218;-70
2024/03/22 05:37:14;;;;;;;12.20;5.50;;;12.60;99.90;;;;;;4907046;29;20443;-69
2024/03/22 05:39:40;;;;;;;7.93;5.20;;;12.50;99.90;;;;;;4908623;29;20593;-72
2024/03/22 05:42:07;;;;;;;12.67;7.87;;;12.50;99.90;;;;;;4914445;29;20489;-71
2024/03/22 05:44:34;;;;;;;13.70;5.70;;;12.60;99.90;;;;;;4916463;29;20499;-69
2024/03/22 05:47:02;;;;;;;8.40;5.90;;;12.60;99.90;;;;;;4918448;29;20939;-71
2024/03/22 05:49:27;;;;;;;18.10;8.23;;;12.70;99.90;;;;;;4917589;29;20469;-70
2024/03/22 05:51:54;;;;;;;17.90;9.00;;;12.70;99.90;;;;;;4914974;29;20573;-70
2024/03/22 05:54:20;;;;;;;16.07;9.80;;;12.80;99.90;;;;;;4912987;29;20236;-70
2024/03/22 05:56:47;;;;;;;10.73;7.13;;;12.70;99.90;;;;;;4907652;29;21150;-70
2024/03/22 05:59:12;;;;;;;13.33;6.37;;;12.70;99.90;;;;;;4914649;29;20657;-71
2024/03/22 06:01:41;;;;;;;5.30;3.77;;;12.70;99.90;;;;;;4917993;28;20488;-69
2024/03/22 06:04:07;;;;;;;17.83;8.43;;;12.70;99.90;;;;;;4907145;29;20320;-70
2024/03/22 06:06:33;;;;;;;14.23;6.60;;;12.70;99.90;;;;;;4908450;29;20507;-70
2024/03/22 06:09:02;;;;;;;9.40;5.67;;;12.70;99.90;;;;;;4919607;29;20468;-70
2024/03/22 06:11:29;;;;;;;8.63;5.93;;;12.80;99.90;;;;;;4915416;29;21023;-69
2024/03/22 06:13:55;;;;;;;13.50;7.80;;;12.70;99.90;;;;;;4917470;29;20441;-70
2024/03/22 06:16:22;;;;;;;6.90;5.00;;;12.70;99.90;;;;;;4919651;29;20455;-70
2024/03/22 06:18:49;;;;;;;12.67;6.20;;;12.80;99.90;;;;;;4915310;28;20202;-70
2024/03/22 06:21:21;;;;;;;10.50;6.27;;;12.80;99.90;;;;;;4917335;29;20475;-70
2024/03/22 06:23:48;;;;;;;6.60;5.20;;;12.80;99.90;;;;;;4916995;29;21035;-70
2024/03/22 06:26:15;;;;;;;16.93;8.30;;;12.80;99.90;;;;;;4915395;29;20435;-70
2024/03/22 06:28:40;;;;;;;9.57;4.63;;;12.80;99.90;;;;;;4911651;29;21078;-70
2024/03/22 06:31:07;;;;;;;9.53;5.87;;;12.90;99.90;;;;;;4925711;29;20476;-69
2024/03/22 06:33:33;;;;;;;14.00;7.90;;;12.90;99.90;;;;;;4915101;29;20206;-69
2024/03/22 06:36:03;;;;;;;6.57;4.23;;;12.90;99.90;;;;;;4914051;29;20902;-69
2024/03/22 06:38:28;;;;;;;8.20;5.87;;;12.90;99.90;;;;;;4914365;29;20201;-70
2024/03/22 06:40:55;;;;;;;7.60;4.53;;;12.80;99.90;;;;;;4920183;29;20485;-71
2024/03/22 06:43:21;;;;;;;12.80;6.93;;;12.80;99.90;;;;;;4923127;28;20597;-71
2024/03/22 06:45:48;;;;;;;12.30;6.47;;;12.80;99.90;;;;;;4913891;28;20545;-71
2024/03/22 06:48:14;;;;;;;6.50;4.83;;;12.80;99.90;;;;;;4915567;29;20284;-71
2024/03/22 06:50:42;;;;;;;15.47;7.50;;;12.90;99.90;;;;;;4911612;28;20975;-72
2024/03/22 06:53:09;;;;;;;17.43;7.30;;;12.90;99.90;;;;;;4917235;29;20464;-72
2024/03/22 06:55:36;;;;;;;14.00;8.10;;;13.00;99.90;;;;;;4913445;29;20474;-72
2024/03/22 06:58:02;;;;;;;8.70;6.40;;;13.10;99.90;;;;;;4911555;29;20466;-72
2024/03/22 07:00:29;;;;;;;13.10;6.97;;;13.10;99.90;;;;;;4915596;28;20803;-72
2024/03/22 07:02:55;;;;;;;13.77;6.87;;;13.20;99.90;;;;;;4916956;29;20470;-72
2024/03/22 07:05:22;;;;;;;16.70;7.83;;;13.20;99.90;;;;;;4918102;29;20826;-68
2024/03/22 07:07:50;;;;;;;12.13;6.43;;;13.20;99.90;;;;;;4912034;29;20489;-69
2024/03/22 07:10:18;;;;;;;11.57;7.57;;;13.30;99.90;;;;;;4909780;29;20997;-69
2024/03/22 07:12:44;;;;;;;10.43;7.70;;;13.30;99.90;;;;;;4916957;29;20496;-69
2024/03/22 07:15:11;;;;;;;5.37;4.03;;;13.30;99.90;;;;;;4913200;29;20464;-68
2024/03/22 07:17:36;;;;;;;9.80;5.50;;;13.30;99.90;;;;;;4911359;29;20239;-68
2024/03/22 07:20:04;;;;;;;9.77;6.53;;;13.40;99.90;;;;;;4912082;29;20436;-68
2024/03/22 07:22:30;;;;;;;11.30;5.90;;;13.50;99.90;;;;;;4911020;29;20225;-69
2024/03/22 07:24:56;;;;;;;9.87;6.33;;;13.70;99.90;;;;;;4912110;29;20813;-69
2024/03/22 07:27:23;;;;;;;8.23;5.43;;;13.80;99.90;;;;;;4909149;29;20308;-68
2024/03/22 07:29:50;;;;;;;15.10;7.60;;;14.00;99.90;;;;;;4924906;29;20906;-68
2024/03/22 07:32:16;;;;;;;11.13;7.07;;;14.00;99.90;;;;;;4917794;29;20489;-69
2024/03/22 07:34:46;;;;;;;8.87;5.87;;;14.10;99.90;;;;;;4915069;29;20507;-68
2024/03/22 07:37:12;;;;;;;16.40;8.00;;;14.30;99.90;;;;;;4914496;28;20206;-68
2024/03/22 07:39:39;;;;;;;11.97;8.17;;;14.40;99.90;;;;;;4925396;29;20452;-68
2024/03/22 07:42:05;;;;;;;9.37;6.70;;;14.40;99.90;;;;;;4921421;29;20221;-68
2024/03/22 07:44:33;;;;;;;9.90;5.70;;;14.40;99.90;;;;;;4916178;29;20658;-68
2024/03/22 07:46:58;;;;;;;8.80;4.07;;;14.50;99.90;;;;;;4917912;29;20504;-68
2024/03/22 07:49:25;;;;;;;12.30;7.23;;;14.40;99.90;;;;;;4918071;29;20828;-69
2024/03/22 07:51:53;;;;;;;14.63;8.53;;;14.10;99.90;;;;;;4912872;29;20227;-69
2024/03/22 07:54:20;;;;;;;9.37;6.67;;;14.10;99.90;;;;;;4911912;29;21004;-68
2024/03/22 07:56:46;;;;;;;14.47;7.87;;;14.10;99.90;;;;;;4916754;29;20472;-68
2024/03/22 07:59:12;;;;;;;14.07;8.57;;;14.20;99.90;;;;;;4922975;29;20840;-68
2024/03/22 08:01:40;;;;;;;12.13;6.87;;;14.30;99.90;;;;;;4912259;28;20233;-70
2024/03/22 08:04:06;;;;;;;11.07;6.43;;;14.30;99.90;;;;;;4913840;29;20472;-69
2024/03/22 08:06:32;;;;;;;10.40;8.23;;;14.20;99.90;;;;;;4919818;29;20470;-69
2024/03/22 08:08:59;;;;;;;15.50;7.47;;;14.30;99.90;;;;;;4910893;29;20486;-68
2024/03/22 08:11:27;;;;;;;7.87;6.17;;;14.30;99.90;;;;;;4923412;29;20233;-69
2024/03/22 08:14:01;;;;;;;11.67;7.67;;;14.40;99.90;;;;;;4920555;29;20535;-68
2024/03/22 08:16:27;;;;;;;12.40;6.80;;;14.50;99.90;;;;;;4914293;29;20469;-68
2024/03/22 08:18:55;;;;;;;12.50;5.90;;;14.40;99.90;;;;;;4910476;29;20454;-68
2024/03/22 08:21:22;;;;;;;3.53;2.53;;;14.50;99.90;;;;;;4950197;23;20727;-69
2024/03/22 08:23:49;;;;;;;9.47;4.07;;;14.60;99.90;;;;;;4953094;28;20460;-67
2024/03/22 08:26:15;;;;;;;10.17;5.00;;;14.50;99.90;;;;;;4957652;28;20479;-68
2024/03/22 08:28:41;;;;;;;10.93;7.07;;;14.50;99.90;;;;;;4952772;28;20479;-67
2024/03/22 08:31:10;;;;;;;9.17;4.80;;;14.70;99.90;;;;;;4950682;28;20228;-68
2024/03/22 08:33:37;;;;;;;9.47;6.03;;;14.70;99.90;;;;;;4939883;28;20453;-68
2024/03/22 08:36:05;;;;;;;20.17;6.17;;;14.80;99.90;;;;;;4939508;28;20457;-68
2024/03/22 08:38:31;;;;;;;11.10;5.50;;;14.80;99.90;;;;;;4939661;28;20516;-68
2024/03/22 08:40:57;;;;;;;12.00;6.33;;;14.80;99.90;;;;;;4942753;28;20515;-68
2024/03/22 08:43:25;;;;;;;14.13;5.90;;;14.70;99.90;;;;;;4937872;28;20433;-68
2024/03/22 08:45:51;;;;;;;9.80;4.57;;;14.80;99.90;;;;;;4938836;28;20209;-68
2024/03/22 08:48:18;;;;;;;12.03;5.33;;;14.90;99.90;;;;;;4931379;28;20487;-68
2024/03/22 08:50:44;;;;;;;8.20;6.00;;;15.00;99.90;;;;;;4935915;28;20905;-68
2024/03/22 08:53:12;;;;;;;8.20;6.27;;;14.90;99.90;;;;;;4937332;28;20827;-68
2024/03/22 08:55:38;;;;;;;8.17;4.60;;;15.10;99.90;;;;;;4941835;28;20467;-68
2024/03/22 08:58:05;;;;;;;6.30;4.27;;;15.20;99.90;;;;;;4935677;28;20892;-68
2024/03/22 09:00:31;;;;;;;9.23;4.73;;;15.30;99.90;;;;;;4937247;28;20209;-68
2024/03/22 09:02:58;;;;;;;12.53;5.07;;;15.30;99.90;;;;;;4942022;28;20452;-68
2024/03/22 09:05:23;;;;;;;13.33;6.37;;;15.30;99.90;;;;;;4939062;28;20201;-68
2024/03/22 09:07:52;;;;;;;9.97;3.90;;;15.50;99.90;;;;;;4934433;28;20483;-68
2024/03/22 09:10:20;;;;;;;8.70;3.80;;;15.70;99.90;;;;;;4931890;28;20798;-67
2024/03/22 09:12:46;;;;;;;15.63;5.83;;;15.70;99.90;;;;;;4935913;28;20475;-67
2024/03/22 09:15:12;;;;;;;5.13;3.70;;;15.90;99.90;;;;;;4932912;28;20461;-68
2024/03/22 09:17:39;;;;;;;19.07;5.37;;;16.20;99.90;;;;;;4938717;28;20741;-68
2024/03/22 09:20:07;;;;;;;12.47;6.87;;;16.40;99.90;;;;;;4939769;28;20216;-68
2024/03/22 09:22:34;;;;;;;4.40;3.50;;;16.40;99.90;;;;;;4937177;28;20574;-68
2024/03/22 09:25:00;;;;;;;16.63;6.67;;;16.20;99.90;;;;;;4936526;28;21264;-68
2024/03/22 09:27:28;;;;;;;7.57;4.63;;;16.10;99.90;;;;;;4934731;28;20455;-68
2024/03/22 09:29:54;;;;;;;8.43;4.20;;;16.20;99.90;;;;;;4941231;28;20349;-68
2024/03/22 09:32:21;;;;;;;12.97;6.00;;;16.40;99.90;;;;;;4933405;28;20939;-68
2024/03/22 09:34:50;;;;;;;9.57;5.07;;;16.50;99.90;;;;;;4935253;28;20235;-68
2024/03/22 09:37:17;;;;;;;8.07;4.70;;;16.50;99.90;;;;;;4935550;28;20568;-68
2024/03/22 09:39:44;;;;;;;8.00;5.00;;;16.40;99.90;;;;;;4938762;28;20495;-68
2024/03/22 09:42:18;;;;;;;10.03;5.23;;;16.40;99.90;;;;;;4936043;28;20491;-68
2024/03/22 09:44:48;;;;;;;14.37;5.07;;;16.50;99.90;;;;;;4937640;28;20511;-68
2024/03/22 09:47:16;;;;;;;12.83;5.80;;;16.50;99.90;;;;;;4930947;28;20983;-67
2024/03/22 09:49:46;;;;;;;6.37;4.57;;;16.40;99.90;;;;;;4934624;28;20484;-67
2024/03/22 09:52:13;;;;;;;9.60;5.10;;;16.20;99.90;;;;;;4936631;28;20824;-67
2024/03/22 09:54:41;;;;;;;10.03;4.73;;;16.20;99.90;;;;;;4941458;28;20464;-67
2024/03/22 09:57:12;;;;;;;10.03;4.63;;;16.20;99.90;;;;;;4935357;28;20453;-67
2024/03/22 09:59:38;;;;;;;10.30;5.27;;;16.10;99.90;;;;;;4931911;28;20455;-67
2024/03/22 10:02:09;;;;;;;8.20;4.47;;;16.20;99.90;;;;;;4931227;28;20494;-67
2024/03/22 10:04:36;;;;;;;5.93;4.30;;;16.30;99.90;;;;;;4938798;28;20538;-67
2024/03/22 10:07:02;;;;;;;9.27;5.60;;;16.30;99.90;;;;;;4933068;28;20534;-67
2024/03/22 10:09:30;;;;;;;6.90;5.20;;;16.30;99.90;;;;;;4934865;28;20575;-68
2024/03/22 10:11:56;;;;;;;9.70;6.03;;;16.30;99.90;;;;;;4932071;28;20487;-68
2024/03/22 10:14:24;;;;;;;7.23;4.43;;;16.50;99.90;;;;;;4937047;28;20566;-68
2024/03/22 10:16:53;;;;;;;10.03;6.40;;;16.70;99.90;;;;;;4933732;28;20464;-68
2024/03/22 10:19:21;;;;;;;9.20;3.27;;;16.90;99.90;;;;;;4938401;28;20471;-68
2024/03/22 10:21:49;;;;;;;11.17;4.20;;;17.20;99.90;;;;;;4936983;28;20630;-68
2024/03/22 10:24:15;;;;;;;7.93;4.60;;;17.10;99.90;;;;;;4933130;28;20456;-68
2024/03/22 10:26:42;;;;;;;9.03;4.80;;;17.10;99.90;;;;;;4932209;28;21219;-68
2024/03/22 10:29:09;;;;;;;7.73;4.57;;;17.10;99.90;;;;;;4940143;28;20228;-68
2024/03/22 10:31:36;;;;;;;10.93;5.20;;;17.10;99.90;;;;;;4937794;28;21271;-68
2024/03/22 10:34:04;;;;;;;10.87;5.30;;;17.40;99.90;;;;;;4932141;28;20468;-68
2024/03/22 10:36:33;;;;;;;4.97;3.70;;;17.50;99.90;;;;;;4936374;28;20456;-68
2024/03/22 10:39:02;;;;;;;7.37;4.27;;;17.50;99.90;;;;;;4938354;28;20456;-68
2024/03/22 10:41:29;;;;;;;9.17;4.67;;;17.20;99.90;;;;;;4933724;28;20510;-68
2024/03/22 10:43:56;;;;;;;13.57;5.57;;;16.90;99.90;;;;;;4939373;28;20668;-68
2024/03/22 10:46:26;;;;;;;11.70;4.40;;;16.80;99.90;;;;;;4928097;28;20472;-68
2024/03/22 10:48:53;;;;;;;11.23;4.50;;;16.80;99.90;;;;;;4938312;28;20487;-72
2024/03/22 10:51:20;;;;;;;10.70;3.90;;;16.60;99.90;;;;;;4935136;28;20507;-67
2024/03/22 10:53:49;;;;;;;11.13;4.60;;;16.60;99.90;;;;;;4938046;28;20475;-68
2024/03/22 10:56:17;;;;;;;6.77;4.27;;;16.50;99.90;;;;;;4937386;28;20462;-68
2024/03/22 10:58:47;;;;;;;8.80;4.70;;;16.40;99.90;;;;;;4935176;28;20453;-68
2024/03/22 11:01:22;;;;;;;9.70;3.60;;;16.60;99.90;;;;;;4943485;28;20488;-69
2024/03/22 11:03:49;;;;;;;5.30;3.70;;;16.90;99.90;;;;;;4939509;28;20467;-68
2024/03/22 11:06:19;;;;;;;5.67;4.67;;;17.30;99.90;;;;;;4932192;28;21291;-68
2024/03/22 11:08:52;;;;;;;8.57;4.87;;;17.60;99.90;;;;;;4935230;28;20479;-68
2024/03/22 11:11:19;;;;;;;6.70;4.13;;;17.50;99.90;;;;;;4940372;28;20523;-68
2024/03/22 11:13:48;;;;;;;7.90;4.43;;;17.50;99.90;;;;;;4935469;28;20464;-68
2024/03/22 11:16:14;;;;;;;7.80;5.30;;;17.50;99.90;;;;;;4937755;28;20717;-68
2024/03/22 11:18:41;;;;;;;6.47;3.40;;;17.30;99.90;;;;;;4938970;28;20463;-68
2024/03/22 11:21:08;;;;;;;5.23;3.20;;;17.40;99.90;;;;;;4941844;28;21013;-68
2024/03/22 11:23:36;;;;;;;7.30;5.07;;;17.80;99.90;;;;;;4936945;28;20980;-68
2024/03/22 11:26:03;;;;;;;7.53;5.60;;;18.10;99.90;;;;;;4926109;28;21184;-68
2024/03/22 11:28:30;;;;;;;3.43;3.00;;;18.50;99.90;;;;;;4936266;28;20579;-67
2024/03/22 11:30:56;;;;;;;13.80;8.33;;;18.30;99.90;;;;;;4944245;28;20503;-67
2024/03/22 11:33:23;;;;;;;8.97;5.90;;;17.70;99.90;;;;;;4942357;28;20456;-67
2024/03/22 11:35:49;;;;;;;5.53;4.27;;;17.40;99.90;;;;;;4939861;28;20478;-67
2024/03/22 11:38:17;;;;;;;8.33;4.97;;;17.20;99.90;;;;;;4938033;28;20527;-67
2024/03/22 11:40:44;;;;;;;6.23;5.63;;;16.90;99.90;;;;;;4943448;28;20490;-67
2024/03/22 11:43:14;;;;;;;7.70;5.10;;;16.50;99.90;;;;;;4943546;28;20454;-67
2024/03/22 11:45:41;;;;;;;8.90;5.40;;;16.30;99.90;;;;;;4946470;28;20821;-68
2024/03/22 11:48:08;;;;;;;8.70;5.97;;;16.30;99.90;;;;;;4937133;28;20471;-67
2024/03/22 11:50:34;;;;;;;7.67;3.80;;;16.20;99.90;;;;;;4943724;28;20618;-67
2024/03/22 11:53:02;;;;;;;8.53;6.20;;;15.80;99.90;;;;;;4944416;28;21070;-67
2024/03/22 11:55:28;;;;;;;9.00;6.00;;;15.60;99.90;;;;;;4943760;28;20215;-67
2024/03/22 11:57:58;;;;;;;16.90;9.27;;;15.60;99.90;;;;;;4941359;28;20467;-68
2024/03/22 12:00:28;;;;;;;17.17;9.23;;;15.50;99.90;;;;;;4934370;28;20571;-67
2024/03/22 12:02:55;;;;;;;12.90;8.63;;;15.50;99.90;;;;;;4936420;28;20460;-68
2024/03/22 12:05:21;;;;;;;13.40;8.53;;;15.50;99.90;;;;;;4946773;28;20468;-67
2024/03/22 12:07:48;;;;;;;14.07;7.67;;;15.40;99.90;;;;;;4941909;28;20567;-67
2024/03/22 12:10:14;;;;;;;9.47;6.27;;;15.30;99.90;;;;;;4938888;28;20472;-67
2024/03/22 12:12:41;;;;;;;14.03;8.43;;;15.30;99.90;;;;;;4941466;28;20456;-68
2024/03/22 12:15:07;;;;;;;12.23;8.90;;;15.30;99.90;;;;;;4944714;28;20459;-68
2024/03/22 12:17:37;;;;;;;14.30;7.70;;;15.40;99.90;;;;;;4940688;28;20452;-68
2024/03/22 12:20:03;;;;;;;12.70;8.00;;;15.50;99.90;;;;;;4937927;28;20452;-68
2024/03/22 12:22:30;;;;;;;10.97;7.07;;;15.50;99.90;;;;;;4938710;28;20484;-68
2024/03/22 12:24:57;;;;;;;9.07;5.67;;;15.30;99.90;;;;;;4944390;28;20873;-69
2024/03/22 12:27:23;;;;;;;10.87;6.47;;;15.10;99.90;;;;;;4938757;28;20464;-69
2024/03/22 12:29:49;;;;;;;16.20;7.90;;;15.00;99.90;;;;;;4937419;28;20734;-67
2024/03/22 12:32:16;;;;;;;9.30;5.70;;;15.00;99.90;;;;;;4944535;28;20472;-67
2024/03/22 12:34:43;;;;;;;14.03;7.60;;;14.90;99.90;;;;;;4942841;28;20309;-68
2024/03/22 12:37:11;;;;;;;11.43;7.27;;;14.80;99.90;;;;;;4938116;28;20559;-68
2024/03/22 12:39:37;;;;;;;7.93;5.53;;;14.90;99.90;;;;;;4947109;28;20919;-68
2024/03/22 12:42:05;;;;;;;10.83;6.37;;;14.90;99.90;;;;;;4942717;28;20482;-68
2024/03/22 12:44:31;;;;;;;7.43;5.53;;;14.70;99.90;;;;;;4945325;28;20209;-68
2024/03/22 12:46:58;;;;;;;11.60;7.17;;;14.70;99.90;;;;;;4939645;28;20459;-67
2024/03/22 12:49:24;;;;;;;12.07;6.60;;;14.70;99.90;;;;;;4940604;28;20228;-68
2024/03/22 12:51:53;;;;;;;11.27;6.50;;;14.60;99.90;;;;;;4939845;28;20522;-68
2024/03/22 12:54:20;;;;;;;12.03;7.03;;;14.60;99.90;;;;;;4944864;28;20905;-68
2024/03/22 12:56:47;;;;;;;11.10;8.33;;;14.60;99.90;;;;;;4944065;28;20554;-67
2024/03/22 12:59:13;;;;;;;10.23;5.80;;;14.50;99.90;;;;;;4938565;28;21016;-68
2024/03/22 13:01:40;;;;;;;9.13;6.10;;;14.40;99.90;;;;;;4941251;28;20483;-69
2024/03/22 13:04:06;;;;;;;7.97;5.63;;;14.40;99.90;;;;;;4930514;28;20212;-67
2024/03/22 13:06:34;;;;;;;11.87;6.27;;;14.30;99.90;;;;;;4943261;28;20462;-68
2024/03/22 13:09:04;;;;;;;15.13;7.43;;;14.20;99.90;;;;;;4942946;28;20480;-68
2024/03/22 13:11:31;;;;;;;8.53;6.00;;;14.20;99.90;;;;;;4936516;28;20484;-68
2024/03/22 13:13:56;;;;;;;9.67;6.47;;;14.10;99.90;;;;;;4939475;28;20498;-68
2024/03/22 13:16:24;;;;;;;12.37;7.27;;;14.00;99.90;;;;;;4937101;28;20471;-69
2024/03/22 13:18:49;;;;;;;10.33;6.50;;;14.10;99.90;;;;;;4933434;28;20203;-69
2024/03/22 13:21:16;;;;;;;14.07;6.73;;;14.30;99.90;;;;;;4925122;28;20554;-69
2024/03/22 13:23:42;;;;;;;11.97;5.80;;;14.40;99.90;;;;;;4935662;28;20201;-69
2024/03/22 13:26:13;;;;;;;14.60;7.63;;;14.20;99.90;;;;;;4931294;28;20438;-69
2024/03/22 13:28:41;;;;;;;10.03;6.83;;;14.10;99.90;;;;;;4936063;28;20228;-69
2024/03/22 13:31:08;;;;;;;11.70;6.70;;;14.10;99.90;;;;;;4933908;28;20478;-69
2024/03/22 13:33:35;;;;;;;14.43;7.00;;;14.00;99.90;;;;;;4908947;28;20797;-69
2024/03/22 13:36:02;;;;;;;11.80;6.90;;;14.00;99.90;;;;;;4936654;28;20467;-69
2024/03/22 13:38:28;;;;;;;15.10;7.80;;;13.90;99.90;;;;;;4923799;28;20625;-70
2024/03/22 13:40:55;;;;;;;20.70;8.80;;;13.90;99.90;;;;;;4936222;28;20547;-69
2024/03/22 13:43:23;;;;;;;15.63;7.90;;;13.90;99.90;;;;;;4926844;28;20960;-69
2024/03/22 13:45:53;;;;;;;12.30;7.60;;;14.00;99.90;;;;;;4934450;28;20468;-68
2024/03/22 13:48:23;;;;;;;14.43;7.63;;;14.10;99.90;;;;;;4919812;28;20446;-69
2024/03/22 13:50:54;;;;;;;15.17;8.63;;;13.90;99.90;;;;;;4924085;28;20468;-68
2024/03/22 13:53:21;;;;;;;15.00;8.80;;;13.70;99.90;;;;;;4914078;28;21064;-68
2024/03/22 13:55:50;;;;;;;19.50;8.93;;;13.80;99.90;;;;;;4929109;28;27300;-68
2024/03/22 13:58:16;;;;;;;14.10;7.87;;;13.70;99.90;;;;;;4915735;28;20463;-68
2024/03/22 14:00:44;;;;;;;23.50;10.40;;;13.70;99.90;;;;;;4919047;28;20462;-68
2024/03/22 14:03:13;;;;;;;27.07;11.40;;;13.80;99.90;;;;;;4921884;28;20463;-68
2024/03/22 14:05:40;;;;;;;19.07;10.27;;;13.90;99.90;;;;;;4920757;28;20451;-69
2024/03/22 14:08:08;;;;;;;25.20;10.73;;;13.70;99.90;;;;;;4925422;28;21178;-68
2024/03/22 14:10:35;;;;;;;19.37;10.37;;;13.60;99.90;;;;;;4924711;28;21323;-68
2024/03/22 14:13:03;;;;;;;21.93;10.23;;;13.40;99.90;;;;;;4927570;28;20498;-69
2024/03/22 14:15:32;;;;;;;22.77;11.20;;;13.20;99.90;;;;;;4923524;28;20463;-69
2024/03/22 14:17:59;;;;;;;20.30;8.80;;;13.00;99.90;;;;;;4932562;28;20501;-69
2024/03/22 14:20:27;;;;;;;21.03;10.50;;;12.90;99.90;;;;;;4934370;28;20455;-68
2024/03/22 14:22:53;;;;;;;16.33;8.83;;;12.90;99.90;;;;;;4930489;28;21031;-69
2024/03/22 14:25:20;;;;;;;12.23;7.40;;;13.00;99.90;;;;;;4925000;28;20524;-68
2024/03/22 14:27:46;;;;;;;16.37;8.53;;;13.10;99.90;;;;;;4917863;28;20299;-67
2024/03/22 14:30:15;;;;;;;22.57;10.20;;;13.10;99.90;;;;;;4915670;28;20550;-67
2024/03/22 14:32:41;;;;;;;19.30;11.20;;;13.00;99.90;;;;;;4926373;28;20496;-67
2024/03/22 14:35:10;;;;;;;19.13;11.37;;;13.00;99.90;;;;;;4928303;28;20459;-67
2024/03/22 14:37:36;;;;;;;11.60;7.27;;;13.00;99.90;;;;;;4926632;28;20795;-67
2024/03/22 14:40:05;;;;;;;17.30;8.07;;;13.00;99.90;;;;;;4931254;28;20456;-67
2024/03/22 14:42:31;;;;;;;20.10;10.17;;;13.00;99.90;;;;;;4930035;28;20555;-68
2024/03/22 14:44:58;;;;;;;13.03;8.53;;;13.10;99.90;;;;;;4924081;28;20796;-67
2024/03/22 14:47:24;;;;;;;17.27;9.33;;;13.00;99.90;;;;;;4930296;28;20196;-67
2024/03/22 14:49:51;;;;;;;19.20;9.80;;;13.10;99.90;;;;;;4936322;28;21003;-67
2024/03/22 14:52:18;;;;;;;21.10;9.63;;;13.20;99.90;;;;;;4938899;28;20847;-67
2024/03/22 14:54:45;;;;;;;15.23;9.13;;;13.30;99.90;;;;;;4941556;28;20479;-67
2024/03/22 14:57:11;;;;;;;17.00;8.37;;;13.20;99.90;;;;;;4958070;23;20495;-68
2024/03/22 14:59:38;;;;;;;11.80;6.43;;;13.10;99.90;;;;;;4937354;28;20970;-68
2024/03/22 15:02:04;;;;;;;25.03;6.57;;;13.00;99.90;;;;;;4914894;28;20228;-68
2024/03/22 15:04:30;;;;;;;17.43;6.93;;;12.90;99.90;;;;;;4918369;29;20820;-68
2024/03/22 15:06:56;;;;;;;10.07;5.60;;;12.90;99.90;;;;;;4925930;29;20471;-68
2024/03/22 15:09:24;;;;;;;9.57;6.60;;;12.90;99.90;;;;;;4917806;29;20496;-69
2024/03/22 15:11:50;;;;;;;13.97;6.63;;;12.80;99.90;;;;;;4921912;29;20237;-68
2024/03/22 15:14:17;;;;;;;11.57;5.73;;;12.80;99.90;;;;;;4916384;29;20439;-68
2024/03/22 15:16:43;;;;;;;9.03;6.07;;;12.80;99.90;;;;;;4912892;29;20288;-69
2024/03/22 15:19:11;;;;;;;12.87;7.57;;;12.90;99.90;;;;;;4911080;29;22953;-68
2024/03/22 15:21:37;;;;;;;7.90;5.20;;;12.90;99.90;;;;;;4904041;29;20247;-68
2024/03/22 15:24:04;;;;;;;8.47;5.50;;;12.90;99.90;;;;;;4917634;29;20454;-68
2024/03/22 15:26:32;;;;;;;14.60;7.57;;;12.80;99.90;;;;;;4913302;29;20492;-69
2024/03/22 15:28:59;;;;;;;10.93;6.67;;;12.80;99.90;;;;;;4903927;29;20665;-68
2024/03/22 15:31:25;;;;;;;13.67;6.63;;;12.90;99.90;;;;;;4899333;29;21000;-69
2024/03/22 15:33:51;;;;;;;12.10;7.70;;;13.00;99.90;;;;;;4906542;29;20431;-69
2024/03/22 15:36:17;;;;;;;9.43;6.00;;;13.00;99.90;;;;;;4898663;29;20473;-67
2024/03/22 15:38:45;;;;;;;12.17;7.73;;;13.00;99.90;;;;;;4895633;29;21074;-68
2024/03/22 15:41:10;;;;;;;12.03;6.50;;;13.00;99.90;;;;;;4909304;29;20228;-68
2024/03/22 15:43:38;;;;;;;10.50;6.47;;;13.10;99.90;;;;;;4902708;29;20459;-68
2024/03/22 15:46:05;;;;;;;8.87;6.87;;;13.00;99.90;;;;;;4898108;29;20213;-68
2024/03/22 15:48:32;;;;;;;10.70;5.70;;;13.00;99.90;;;;;;4909940;29;20516;-68
2024/03/22 15:50:58;;;;;;;14.20;7.90;;;13.00;99.90;;;;;;4904130;29;20501;-68
2024/03/22 15:53:24;;;;;;;10.10;6.10;;;12.90;99.90;;;;;;4906159;29;20428;-68
2024/03/22 15:55:50;;;;;;;16.70;6.33;;;12.90;99.90;;;;;;4899968;29;20209;-68
2024/03/22 15:58:17;;;;;;;11.80;6.40;;;12.80;99.90;;;;;;4902494;29;20468;-68
2024/03/22 16:00:45;;;;;;;12.00;7.90;;;12.80;99.90;;;;;;4900968;29;20722;-68
2024/03/22 16:03:13;;;;;;;15.70;7.40;;;12.90;99.90;;;;;;4915886;29;20457;-69
2024/03/22 16:05:49;;;;;;;19.30;9.43;;;13.00;99.90;;;;;;4915561;29;20532;-69
2024/03/22 16:08:15;;;;;;;17.03;8.53;;;12.90;99.90;;;;;;4916016;29;20457;-69
2024/03/22 16:10:41;;;;;;;17.17;8.90;;;12.80;99.90;;;;;;4903924;29;20784;-68
2024/03/22 16:13:08;;;;;;;16.63;9.30;;;12.90;99.90;;;;;;4904403;29;20516;-69
2024/03/22 16:15:34;;;;;;;16.33;8.30;;;12.80;99.90;;;;;;4904558;29;20285;-68
2024/03/22 16:18:02;;;;;;;13.03;7.53;;;12.80;99.90;;;;;;4910129;29;21677;-68
2024/03/22 16:20:29;;;;;;;19.40;10.67;;;12.70;99.90;;;;;;4907249;29;20509;-69
2024/03/22 16:22:55;;;;;;;13.20;7.90;;;12.70;99.90;;;;;;4902035;29;21330;-67
2024/03/22 16:25:21;;;;;;;15.00;8.80;;;12.60;99.90;;;;;;4910613;29;20465;-70
2024/03/22 16:27:48;;;;;;;20.63;7.67;;;12.50;99.90;;;;;;4917773;29;20458;-68
2024/03/22 16:30:16;;;;;;;14.10;7.30;;;12.40;99.90;;;;;;4900847;29;20236;-68
2024/03/22 16:32:43;;;;;;;16.37;9.40;;;12.50;99.90;;;;;;4901138;29;20461;-68
2024/03/22 16:35:14;;;;;;;16.57;7.37;;;12.50;99.90;;;;;;4907462;29;20654;-69
2024/03/22 16:37:41;;;;;;;11.07;7.37;;;12.50;99.90;;;;;;4913204;29;20574;-68
2024/03/22 16:40:08;;;;;;;12.60;7.10;;;12.40;99.90;;;;;;4905873;29;20464;-69